createdAt,value
2023-05-19T00:00:06.948Z,4.60
2023-05-19T00:00:50.876Z,3.78
2023-05-19T00:01:33.167Z,4.85
2023-05-19T00:02:15.978Z,4.50
2023-05-19T00:02:58.198Z,4.40
2023-05-19T00:03:54.081Z,3.85
2023-05-19T00:04:36.289Z,4.72
2023-05-19T00:05:18.710Z,4.25
2023-05-19T00:06:03.134Z,4.68
2023-05-19T00:06:51.409Z,4.78
2023-05-19T00:07:35.931Z,4.50
2023-05-19T00:08:19.158Z,4.50
2023-05-19T00:09:07.196Z,4.50
2023-05-19T00:09:52.075Z,4.57
2023-05-19T00:10:34.530Z,5.15
2023-05-19T00:11:16.847Z,5.00
2023-05-19T00:11:58.992Z,5.10
2023-05-19T00:12:41.820Z,4.43
2023-05-19T00:13:24.054Z,5.30
2023-05-19T00:14:08.255Z,4.32
2023-05-19T00:14:50.508Z,5.10
2023-05-19T00:15:32.659Z,4.78
2023-05-19T00:16:15.257Z,4.60
2023-05-19T00:17:00.242Z,4.40
2023-05-19T00:17:46.974Z,4.40
2023-05-19T00:18:32.116Z,4.70
2023-05-19T00:19:14.231Z,4.68
2023-05-19T00:19:56.508Z,4.43
2023-05-19T00:20:39.059Z,4.72
2023-05-19T00:21:21.099Z,5.00
2023-05-19T00:22:03.061Z,4.90
2023-05-19T00:22:45.047Z,4.70
2023-05-19T00:23:26.881Z,4.50
2023-05-19T00:24:09.182Z,4.63
2023-05-19T00:24:51.169Z,5.00
2023-05-19T00:25:35.322Z,5.35
2023-05-19T00:26:17.369Z,5.10
2023-05-19T00:26:59.271Z,4.80
2023-05-19T00:27:41.188Z,5.05
2023-05-19T00:28:23.048Z,4.93
2023-05-19T00:29:05.253Z,4.70
2023-05-19T00:29:47.056Z,4.70
2023-05-19T00:30:30.259Z,4.70
2023-05-19T00:31:15.349Z,4.60
2023-05-19T00:31:57.402Z,5.00
2023-05-19T00:32:39.421Z,4.68
2023-05-19T00:33:21.632Z,5.38
2023-05-19T00:34:03.589Z,5.00
2023-05-19T00:34:50.321Z,4.63
2023-05-19T00:35:32.259Z,4.78
2023-05-19T00:36:14.279Z,4.60
2023-05-19T00:36:56.216Z,5.40
2023-05-19T00:37:40.330Z,4.78
2023-05-19T00:38:22.293Z,5.38
2023-05-19T00:39:04.269Z,5.25
2023-05-19T00:39:46.135Z,5.38
2023-05-19T00:40:31.523Z,5.30
2023-05-19T00:41:13.645Z,4.82
2023-05-19T00:41:55.547Z,4.47
2023-05-19T00:42:40.176Z,4.80
2023-05-19T00:43:22.452Z,4.90
2023-05-19T00:44:07.221Z,4.82
2023-05-19T00:44:49.303Z,5.18
2023-05-19T00:45:31.606Z,5.40
2023-05-19T00:46:13.530Z,5.22
2023-05-19T00:46:55.864Z,5.03
2023-05-19T00:47:39.866Z,5.22
2023-05-19T00:48:22.452Z,5.60
2023-05-19T00:49:04.731Z,5.38
2023-05-19T00:49:46.738Z,5.30
2023-05-19T00:50:29.310Z,4.90
2023-05-19T00:51:17.344Z,4.47
2023-05-19T00:52:01.398Z,5.03
2023-05-19T00:52:43.233Z,5.50
2023-05-19T00:53:25.474Z,4.80
2023-05-19T00:54:10.169Z,5.03
2023-05-19T00:54:54.847Z,5.35
2023-05-19T00:55:40.516Z,5.30
2023-05-19T00:56:23.494Z,4.35
2023-05-19T00:57:05.694Z,4.63
2023-05-19T00:57:49.475Z,5.18
2023-05-19T00:58:32.761Z,4.90
2023-05-19T00:59:17.277Z,5.03
2023-05-19T01:00:02.104Z,5.40
2023-05-19T01:00:44.363Z,5.10
2023-05-19T01:01:27.075Z,5.65
2023-05-19T01:02:09.187Z,5.30
2023-05-19T01:02:51.765Z,5.20
2023-05-19T01:03:36.331Z,4.90
2023-05-19T01:04:22.149Z,4.55
2023-05-19T01:05:04.401Z,4.75
2023-05-19T01:05:47.588Z,4.88
2023-05-19T01:06:32.202Z,4.90
2023-05-19T01:07:14.287Z,5.47
2023-05-19T01:07:56.857Z,4.97
2023-05-19T01:08:39.426Z,4.80
2023-05-19T01:09:25.113Z,5.05
2023-05-19T01:10:07.452Z,4.88
2023-05-19T01:10:51.808Z,5.00
2023-05-19T01:11:33.584Z,5.20
2023-05-19T01:12:16.332Z,5.65
2023-05-19T01:12:58.277Z,5.15
2023-05-19T01:13:42.100Z,4.88
2023-05-19T01:14:24.373Z,5.20
2023-05-19T01:15:07.687Z,5.20
2023-05-19T01:15:58.636Z,4.90
2023-05-19T01:16:56.723Z,5.15
2023-05-19T01:17:54.718Z,5.60
2023-05-19T01:18:58.700Z,5.13
2023-05-19T01:19:52.117Z,5.70
2023-05-19T01:20:46.284Z,5.30
2023-05-19T01:21:49.405Z,5.70
2023-05-19T01:23:07.968Z,5.03
2023-05-19T01:24:04.476Z,5.45
2023-05-19T01:25:07.011Z,4.90
2023-05-19T01:26:12.155Z,5.25
2023-05-19T01:27:21.081Z,5.13
2023-05-19T01:28:19.833Z,4.60
2023-05-19T01:29:56.664Z,5.13
2023-05-19T01:30:45.568Z,5.75
2023-05-19T01:31:27.748Z,5.40
2023-05-19T01:32:11.961Z,5.60
2023-05-19T01:33:05.616Z,5.25
2023-05-19T01:33:49.401Z,5.30
2023-05-19T01:34:31.754Z,5.50
2023-05-19T01:35:16.698Z,5.45
2023-05-19T01:36:00.619Z,5.80
2023-05-19T01:36:47.746Z,5.50
2023-05-19T01:37:32.341Z,4.50
2023-05-19T01:38:16.526Z,5.40
2023-05-19T01:38:59.561Z,6.00
2023-05-19T01:39:43.961Z,5.15
2023-05-19T01:40:27.589Z,5.00
2023-05-19T01:41:11.220Z,5.70
2023-05-19T01:41:54.851Z,5.35
2023-05-19T01:42:42.340Z,5.20
2023-05-19T01:43:26.498Z,5.10
2023-05-19T01:44:09.792Z,5.20
2023-05-19T01:44:53.692Z,5.40
2023-05-19T01:45:36.705Z,4.88
2023-05-19T01:46:19.657Z,5.05
2023-05-19T01:47:02.405Z,4.90
2023-05-19T01:47:47.527Z,5.00
2023-05-19T01:48:30.713Z,5.00
2023-05-19T01:49:15.693Z,5.10
2023-05-19T01:49:57.800Z,5.07
2023-05-19T01:50:41.260Z,4.65
2023-05-19T01:51:25.194Z,4.78
2023-05-19T01:52:07.364Z,4.95
2023-05-19T01:52:49.613Z,5.30
2023-05-19T01:53:31.661Z,5.28
2023-05-19T01:54:13.504Z,5.55
2023-05-19T01:54:55.461Z,6.07
2023-05-19T01:55:51.379Z,4.80
2023-05-19T01:56:52.704Z,5.63
2023-05-19T01:57:46.778Z,5.95
2023-05-19T01:58:46.031Z,5.63
2023-05-19T01:59:53.548Z,4.80
2023-05-19T02:00:37.392Z,5.60
2023-05-19T02:01:31.461Z,5.78
2023-05-19T02:02:39.379Z,5.45
2023-05-19T02:03:39.870Z,5.32
2023-05-19T02:04:35.519Z,5.50
2023-05-19T02:05:34.917Z,4.72
2023-05-19T02:06:37.650Z,5.20
2023-05-19T02:07:41.957Z,5.35
2023-05-19T02:08:42.360Z,5.15
2023-05-19T02:09:34.865Z,5.20
2023-05-19T02:10:26.570Z,5.30
2023-05-19T02:11:35.474Z,5.00
2023-05-19T02:12:30.669Z,5.60
2023-05-19T02:13:15.033Z,5.90
2023-05-19T02:14:01.278Z,5.43
2023-05-19T02:14:49.592Z,5.47
2023-05-19T02:15:39.036Z,5.40
2023-05-19T02:16:25.050Z,5.38
2023-05-19T02:17:10.459Z,5.60
2023-05-19T02:17:57.832Z,5.63
2023-05-19T02:18:47.359Z,4.90
2023-05-19T02:19:42.664Z,5.30
2023-05-19T02:20:24.787Z,5.55
2023-05-19T02:21:06.899Z,5.20
2023-05-19T02:21:48.730Z,5.28
2023-05-19T02:22:31.146Z,6.03
2023-05-19T02:23:12.976Z,5.82
2023-05-19T02:23:57.629Z,4.90
2023-05-19T02:24:41.491Z,5.13
2023-05-19T02:25:26.597Z,5.20
2023-05-19T02:26:08.797Z,5.80
2023-05-19T02:26:52.206Z,5.93
2023-05-19T02:27:35.832Z,5.95
2023-05-19T02:28:20.712Z,5.28
2023-05-19T02:29:02.535Z,5.07
2023-05-19T02:29:44.791Z,5.07
2023-05-19T02:30:26.778Z,4.95
2023-05-19T02:31:10.155Z,5.03
2023-05-19T02:31:52.386Z,5.30
2023-05-19T02:32:35.213Z,5.20
2023-05-19T02:33:19.282Z,5.20
2023-05-19T02:34:01.138Z,5.88
2023-05-19T02:34:48.170Z,5.32
2023-05-19T02:35:32.677Z,4.95
2023-05-19T02:36:14.859Z,5.10
2023-05-19T02:36:56.758Z,4.72
2023-05-19T02:37:38.744Z,5.22
2023-05-19T02:38:21.374Z,5.40
2023-05-19T02:39:04.166Z,5.57
2023-05-19T02:39:45.981Z,5.50
2023-05-19T02:40:27.898Z,5.25
2023-05-19T02:41:10.788Z,5.30
2023-05-19T02:41:52.636Z,5.90
2023-05-19T02:42:34.794Z,5.90
2023-05-19T02:43:16.999Z,5.70
2023-05-19T02:43:58.913Z,5.40
2023-05-19T02:44:40.770Z,5.13
2023-05-19T02:45:22.682Z,5.82
2023-05-19T02:46:04.909Z,5.50
2023-05-19T02:46:47.085Z,5.20
2023-05-19T02:47:29.100Z,5.65
2023-05-19T02:48:13.713Z,5.07
2023-05-19T02:48:55.691Z,5.75
2023-05-19T02:49:37.896Z,5.72
2023-05-19T02:50:19.704Z,5.68
2023-05-19T02:51:01.845Z,5.47
2023-05-19T02:51:43.746Z,5.90
2023-05-19T02:52:25.982Z,5.57
2023-05-19T02:53:07.820Z,5.32
2023-05-19T02:53:49.930Z,5.40
2023-05-19T02:54:32.595Z,6.00
2023-05-19T02:55:17.177Z,5.90
2023-05-19T02:55:59.245Z,5.78
2023-05-19T02:56:41.083Z,6.72
2023-05-19T02:57:23.058Z,6.13
2023-05-19T02:58:07.408Z,5.80
2023-05-19T02:58:49.282Z,5.07
2023-05-19T02:59:31.387Z,5.22
2023-05-19T03:00:13.971Z,6.28
2023-05-19T03:00:56.162Z,6.00
2023-05-19T03:01:38.872Z,5.80
2023-05-19T03:02:20.713Z,6.30
2023-05-19T03:03:04.979Z,6.00
2023-05-19T03:03:49.953Z,5.63
2023-05-19T03:04:32.140Z,5.57
2023-05-19T03:05:14.436Z,5.60
2023-05-19T03:05:57.031Z,5.60
2023-05-19T03:06:39.372Z,6.07
2023-05-19T03:07:25.287Z,5.85
2023-05-19T03:08:07.578Z,6.10
2023-05-19T03:08:50.106Z,5.78
2023-05-19T03:09:32.168Z,5.78
2023-05-19T03:10:14.749Z,5.70
2023-05-19T03:10:57.182Z,6.00
2023-05-19T03:11:39.760Z,6.28
2023-05-19T03:12:22.092Z,5.90
2023-05-19T03:13:04.361Z,6.30
2023-05-19T03:13:46.176Z,6.40
2023-05-19T03:14:28.066Z,6.30
2023-05-19T03:15:10.300Z,5.80
2023-05-19T03:15:52.632Z,5.88
2023-05-19T03:16:34.679Z,6.05
2023-05-19T03:17:16.581Z,6.28
2023-05-19T03:17:59.079Z,6.00
2023-05-19T03:18:42.138Z,6.80
2023-05-19T03:19:24.410Z,6.53
2023-05-19T03:20:06.969Z,6.60
2023-05-19T03:20:48.937Z,6.40
2023-05-19T03:21:32.160Z,7.30
2023-05-19T03:22:14.410Z,6.80
2023-05-19T03:22:57.082Z,6.03
2023-05-19T03:23:39.026Z,5.95
2023-05-19T03:24:23.206Z,6.18
2023-05-19T03:25:05.345Z,6.30
2023-05-19T03:25:47.967Z,5.90
2023-05-19T03:26:29.765Z,6.50
2023-05-19T03:27:12.213Z,6.13
2023-05-19T03:27:54.054Z,6.18
2023-05-19T03:28:37.886Z,6.07
2023-05-19T03:29:19.764Z,6.50
2023-05-19T03:30:03.333Z,6.55
2023-05-19T03:30:50.084Z,5.53
2023-05-19T03:31:32.191Z,6.15
2023-05-19T03:32:14.142Z,6.38
2023-05-19T03:32:56.154Z,6.05
2023-05-19T03:33:38.004Z,6.00
2023-05-19T03:34:19.839Z,5.50
2023-05-19T03:35:02.043Z,5.90
2023-05-19T03:35:44.577Z,5.97
2023-05-19T03:36:32.046Z,6.25
2023-05-19T03:37:14.421Z,5.70
2023-05-19T03:37:56.324Z,5.80
2023-05-19T03:38:38.202Z,6.00
2023-05-19T03:39:20.084Z,6.55
2023-05-19T03:40:04.685Z,6.75
2023-05-19T03:40:47.115Z,6.28
2023-05-19T03:41:29.071Z,6.55
2023-05-19T03:42:11.292Z,6.88
2023-05-19T03:42:54.440Z,7.00
2023-05-19T03:43:36.266Z,6.50
2023-05-19T03:44:18.094Z,6.93
2023-05-19T03:45:00.391Z,6.38
2023-05-19T03:45:45.337Z,5.60
2023-05-19T03:46:28.201Z,6.20
2023-05-19T03:47:11.107Z,6.05
2023-05-19T03:47:54.968Z,6.18
2023-05-19T03:48:37.306Z,6.57
2023-05-19T03:49:19.524Z,6.00
2023-05-19T03:50:02.187Z,5.93
2023-05-19T03:50:44.754Z,6.20
2023-05-19T03:51:30.663Z,6.07
2023-05-19T03:52:13.033Z,5.85
2023-05-19T03:52:55.262Z,6.65
2023-05-19T03:53:38.011Z,6.60
2023-05-19T03:54:22.525Z,6.05
2023-05-19T03:55:05.304Z,5.97
2023-05-19T03:55:50.649Z,6.40
2023-05-19T03:56:35.273Z,6.30
2023-05-19T03:57:17.311Z,6.50
2023-05-19T03:57:59.601Z,6.10
2023-05-19T03:58:45.074Z,6.95
2023-05-19T03:59:27.327Z,6.78
2023-05-19T04:00:11.381Z,6.80
2023-05-19T04:00:53.294Z,6.25
2023-05-19T04:01:35.110Z,6.97
2023-05-19T04:02:17.344Z,6.57
2023-05-19T04:03:00.510Z,6.53
2023-05-19T04:03:45.098Z,6.40
2023-05-19T04:04:28.406Z,6.25
2023-05-19T04:05:13.005Z,5.70
2023-05-19T04:05:55.327Z,5.90
2023-05-19T04:06:37.867Z,6.22
2023-05-19T04:07:19.737Z,5.82
2023-05-19T04:08:01.647Z,5.80
2023-05-19T04:08:44.330Z,5.65
2023-05-19T04:09:26.217Z,6.13
2023-05-19T04:10:10.759Z,6.18
2023-05-19T04:10:53.271Z,6.07
2023-05-19T04:11:37.137Z,6.13
2023-05-19T04:12:19.197Z,6.32
2023-05-19T04:13:01.319Z,5.97
2023-05-19T04:13:44.556Z,5.90
2023-05-19T04:14:27.409Z,5.97
2023-05-19T04:15:11.531Z,6.30
2023-05-19T04:15:53.517Z,6.90
2023-05-19T04:16:38.031Z,5.80
2023-05-19T04:17:20.357Z,6.40
2023-05-19T04:18:02.435Z,6.22
2023-05-19T04:18:46.431Z,6.07
2023-05-19T04:19:28.444Z,7.20
2023-05-19T04:20:11.218Z,6.47
2023-05-19T04:20:53.112Z,6.55
2023-05-19T04:21:35.174Z,6.00
2023-05-19T04:22:17.303Z,5.60
2023-05-19T04:22:59.232Z,5.70
2023-05-19T04:23:41.677Z,6.15
2023-05-19T04:24:23.502Z,5.57
2023-05-19T04:25:08.303Z,6.07
2023-05-19T04:25:50.403Z,6.90
2023-05-19T04:26:34.473Z,5.80
2023-05-19T04:27:17.870Z,6.18
2023-05-19T04:28:03.110Z,6.78
2023-05-19T04:28:45.244Z,6.20
2023-05-19T04:29:29.456Z,5.97
2023-05-19T04:30:12.317Z,7.18
2023-05-19T04:30:54.892Z,7.40
2023-05-19T04:31:36.794Z,7.05
2023-05-19T04:32:18.676Z,6.40
2023-05-19T04:33:03.561Z,5.80
2023-05-19T04:33:48.790Z,6.30
2023-05-19T04:34:32.845Z,6.50
2023-05-19T04:35:17.485Z,6.38
2023-05-19T04:35:59.746Z,6.15
2023-05-19T04:36:41.755Z,6.50
2023-05-19T04:37:24.242Z,7.03
2023-05-19T04:38:06.263Z,6.50
2023-05-19T04:38:48.404Z,6.50
2023-05-19T04:39:31.308Z,6.63
2023-05-19T04:40:13.668Z,6.05
2023-05-19T04:40:56.419Z,6.07
2023-05-19T04:41:40.438Z,5.68
2023-05-19T04:42:28.351Z,5.70
2023-05-19T04:43:11.407Z,5.70
2023-05-19T04:43:53.569Z,5.93
2023-05-19T04:44:36.238Z,5.80
2023-05-19T04:45:18.414Z,6.20
2023-05-19T04:46:00.285Z,6.28
2023-05-19T04:46:42.750Z,6.28
2023-05-19T04:47:30.127Z,6.47
2023-05-19T04:48:12.507Z,6.30
2023-05-19T04:48:55.516Z,6.10
2023-05-19T04:49:38.976Z,6.45
2023-05-19T04:50:23.160Z,6.07
2023-05-19T04:51:05.585Z,6.00
2023-05-19T04:51:50.404Z,6.40
2023-05-19T04:52:33.263Z,6.55
2023-05-19T04:53:15.601Z,6.10
2023-05-19T04:54:00.185Z,5.88
2023-05-19T04:54:42.466Z,6.20
2023-05-19T04:55:24.738Z,6.85
2023-05-19T04:56:07.344Z,5.95
2023-05-19T04:56:49.346Z,5.60
2023-05-19T04:57:31.310Z,6.63
2023-05-19T04:58:15.506Z,6.70
2023-05-19T04:59:00.158Z,6.20
2023-05-19T04:59:42.400Z,6.60
2023-05-19T05:00:25.390Z,6.20
2023-05-19T05:01:09.545Z,5.68
2023-05-19T05:01:51.488Z,5.78
2023-05-19T05:02:34.128Z,6.65
2023-05-19T05:03:16.511Z,5.90
2023-05-19T05:03:59.376Z,6.03
2023-05-19T05:04:44.131Z,5.80
2023-05-19T05:05:28.376Z,5.80
2023-05-19T05:06:11.463Z,6.10
2023-05-19T05:06:53.312Z,6.40
2023-05-19T05:07:35.231Z,6.55
2023-05-19T05:08:25.374Z,6.68
2023-05-19T05:09:07.820Z,6.40
2023-05-19T05:09:50.077Z,6.72
2023-05-19T05:10:32.084Z,6.22
2023-05-19T05:11:14.368Z,6.78
2023-05-19T05:11:56.469Z,7.38
2023-05-19T05:12:39.265Z,6.03
2023-05-19T05:13:24.375Z,6.30
2023-05-19T05:14:06.537Z,6.70
2023-05-19T05:14:48.608Z,6.50
2023-05-19T05:15:30.808Z,6.60
2023-05-19T05:16:13.752Z,6.72
2023-05-19T05:16:58.598Z,6.60
2023-05-19T05:17:40.695Z,6.47
2023-05-19T05:18:25.510Z,6.90
2023-05-19T05:19:10.374Z,7.03
2023-05-19T05:19:54.984Z,7.00
2023-05-19T05:20:37.505Z,6.28
2023-05-19T05:21:20.107Z,6.50
2023-05-19T05:22:02.550Z,6.53
2023-05-19T05:22:45.020Z,6.90
2023-05-19T05:23:27.507Z,6.50
2023-05-19T05:24:10.293Z,6.00
2023-05-19T05:24:52.497Z,6.55
2023-05-19T05:25:35.369Z,7.05
2023-05-19T05:26:24.196Z,6.75
2023-05-19T05:27:08.198Z,7.07
2023-05-19T05:27:50.272Z,7.38
2023-05-19T05:28:32.554Z,7.47
2023-05-19T05:29:14.513Z,6.75
2023-05-19T05:29:58.617Z,7.15
2023-05-19T05:30:41.539Z,6.95
2023-05-19T05:31:23.409Z,7.18
2023-05-19T05:32:05.609Z,7.40
2023-05-19T05:32:50.448Z,6.80
2023-05-19T05:33:32.503Z,6.70
2023-05-19T05:34:14.432Z,6.90
2023-05-19T05:34:59.018Z,6.53
2023-05-19T05:35:40.860Z,6.03
2023-05-19T05:36:25.328Z,6.40
2023-05-19T05:37:07.579Z,6.45
2023-05-19T05:37:49.481Z,6.43
2023-05-19T05:38:31.557Z,6.65
2023-05-19T05:39:13.867Z,5.82
2023-05-19T05:39:55.801Z,5.80
2023-05-19T05:40:40.306Z,5.90
2023-05-19T05:41:22.531Z,5.93
2023-05-19T05:42:04.727Z,6.60
2023-05-19T05:42:46.717Z,7.07
2023-05-19T05:43:29.002Z,5.93
2023-05-19T05:44:10.787Z,6.20
2023-05-19T05:44:53.670Z,5.95
2023-05-19T05:45:35.711Z,5.78
2023-05-19T05:46:17.712Z,6.25
2023-05-19T05:46:59.798Z,6.25
2023-05-19T05:47:41.899Z,6.25
2023-05-19T05:48:24.658Z,5.50
2023-05-19T05:49:06.909Z,5.70
2023-05-19T05:49:49.289Z,6.30
2023-05-19T05:50:32.028Z,6.15
2023-05-19T05:51:14.407Z,6.00
2023-05-19T05:52:05.563Z,5.57
2023-05-19T05:52:48.926Z,6.22
2023-05-19T05:53:34.576Z,5.90
2023-05-19T05:54:18.880Z,5.40
2023-05-19T05:55:03.845Z,5.82
2023-05-19T05:55:49.641Z,5.85
2023-05-19T05:56:33.742Z,5.40
2023-05-19T05:57:15.972Z,6.13
2023-05-19T05:57:58.772Z,6.03
2023-05-19T05:58:40.839Z,5.18
2023-05-19T05:59:23.239Z,5.07
2023-05-19T06:00:07.988Z,5.67
2023-05-19T06:00:53.798Z,5.88
2023-05-19T06:01:36.684Z,5.60
2023-05-19T06:02:18.621Z,6.05
2023-05-19T06:03:00.622Z,5.60
2023-05-19T06:03:46.275Z,4.82
2023-05-19T06:04:30.694Z,5.38
2023-05-19T06:05:14.061Z,5.85
2023-05-19T06:05:56.038Z,5.33
2023-05-19T06:06:38.932Z,5.20
2023-05-19T06:07:23.799Z,4.60
2023-05-19T06:08:08.608Z,4.82
2023-05-19T06:08:50.608Z,5.22
2023-05-19T06:09:32.997Z,5.75
2023-05-19T06:10:15.086Z,4.97
2023-05-19T06:11:00.300Z,4.35
2023-05-19T06:11:42.169Z,5.00
2023-05-19T06:12:24.012Z,4.40
2023-05-19T06:13:05.870Z,4.18
2023-05-19T06:13:47.873Z,4.70
2023-05-19T06:14:29.731Z,5.10
2023-05-19T06:15:13.683Z,4.60
2023-05-19T06:15:55.765Z,5.00
2023-05-19T06:16:37.966Z,5.30
2023-05-19T06:17:20.202Z,5.80
2023-05-19T06:18:02.125Z,4.57
2023-05-19T06:18:46.408Z,4.45
2023-05-19T06:19:30.597Z,4.75
2023-05-19T06:20:13.182Z,4.40
2023-05-19T06:20:55.715Z,4.70
2023-05-19T06:21:37.784Z,5.00
2023-05-19T06:22:19.749Z,4.55
2023-05-19T06:23:03.667Z,4.45
2023-05-19T06:23:45.605Z,4.13
2023-05-19T06:24:27.862Z,4.20
2023-05-19T06:25:10.255Z,4.07
2023-05-19T06:25:52.143Z,4.85
2023-05-19T06:26:34.053Z,4.53
2023-05-19T06:27:15.959Z,3.97
2023-05-19T06:27:57.865Z,4.25
2023-05-19T06:28:39.699Z,4.75
2023-05-19T06:29:23.618Z,4.30
2023-05-19T06:30:10.618Z,4.50
2023-05-19T06:30:52.454Z,4.00
2023-05-19T06:31:34.793Z,4.63
2023-05-19T06:32:19.005Z,4.75
2023-05-19T06:33:00.851Z,4.22
2023-05-19T06:33:42.899Z,4.38
2023-05-19T06:34:24.781Z,4.05
2023-05-19T06:35:07.025Z,4.25
2023-05-19T06:35:48.925Z,4.30
2023-05-19T06:36:33.659Z,4.35
2023-05-19T06:37:19.983Z,4.40
2023-05-19T06:38:01.792Z,4.10
2023-05-19T06:38:46.241Z,4.20
2023-05-19T06:39:28.401Z,4.03
2023-05-19T06:40:11.375Z,4.63
2023-05-19T06:40:53.200Z,4.40
2023-05-19T06:41:35.326Z,4.32
2023-05-19T06:42:17.755Z,4.43
2023-05-19T06:42:59.711Z,4.28
2023-05-19T06:43:42.947Z,4.60
2023-05-19T06:44:24.770Z,4.40
2023-05-19T06:45:07.780Z,4.38
2023-05-19T06:45:49.704Z,4.07
2023-05-19T06:46:31.980Z,4.20
2023-05-19T06:47:14.002Z,4.18
2023-05-19T06:47:58.379Z,4.15
2023-05-19T06:48:42.742Z,4.20
2023-05-19T06:49:24.638Z,3.80
2023-05-19T06:50:07.055Z,3.60
2023-05-19T06:50:48.932Z,4.32
2023-05-19T06:51:33.793Z,4.38
2023-05-19T06:52:17.915Z,4.40
2023-05-19T06:52:59.815Z,4.90
2023-05-19T06:53:42.081Z,5.60
2023-05-19T06:54:23.890Z,4.78
2023-05-19T06:55:06.302Z,4.30
2023-05-19T06:55:58.768Z,3.85
2023-05-19T06:56:42.417Z,4.00
2023-05-19T06:57:24.436Z,4.15
2023-05-19T06:58:06.260Z,3.97
2023-05-19T06:58:48.154Z,4.65
2023-05-19T06:59:30.084Z,4.80
2023-05-19T07:00:14.590Z,4.03
2023-05-19T07:00:58.928Z,3.50
2023-05-19T07:01:43.288Z,4.47
2023-05-19T07:02:25.429Z,4.50
2023-05-19T07:03:10.060Z,3.60
2023-05-19T07:03:52.240Z,3.78
2023-05-19T07:04:34.540Z,3.78
2023-05-19T07:05:16.951Z,3.58
2023-05-19T07:05:58.968Z,3.25
2023-05-19T07:06:43.150Z,3.40
2023-05-19T07:07:24.974Z,3.65
2023-05-19T07:08:08.337Z,3.83
2023-05-19T07:08:50.200Z,3.53
2023-05-19T07:09:35.260Z,3.15
2023-05-19T07:10:17.300Z,3.25
2023-05-19T07:10:59.388Z,2.90
2023-05-19T07:11:41.234Z,2.70
2023-05-19T07:12:23.171Z,3.38
2023-05-19T07:13:05.171Z,3.40
2023-05-19T07:13:47.446Z,2.70
2023-05-19T07:14:29.633Z,2.88
2023-05-19T07:15:12.082Z,3.30
2023-05-19T07:15:57.921Z,2.83
2023-05-19T07:16:39.839Z,2.80
2023-05-19T07:17:22.071Z,2.60
2023-05-19T07:18:04.019Z,2.80
2023-05-19T07:18:46.185Z,2.85
2023-05-19T07:19:28.189Z,3.00
2023-05-19T07:20:12.672Z,2.70
2023-05-19T07:20:54.719Z,2.90
2023-05-19T07:21:36.575Z,2.50
2023-05-19T07:22:18.470Z,2.70
2023-05-19T07:23:05.245Z,3.15
2023-05-19T07:23:47.171Z,2.58
2023-05-19T07:24:29.054Z,2.40
2023-05-19T07:25:12.936Z,2.40
2023-05-19T07:25:56.516Z,2.50
2023-05-19T07:26:38.915Z,2.72
2023-05-19T07:27:20.981Z,2.88
2023-05-19T07:28:02.819Z,3.30
2023-05-19T07:28:44.808Z,2.92
2023-05-19T07:29:26.634Z,2.70
2023-05-19T07:30:08.982Z,2.80
2023-05-19T07:30:53.581Z,2.40
2023-05-19T07:31:38.296Z,2.60
2023-05-19T07:32:20.284Z,2.65
2023-05-19T07:33:04.670Z,2.65
2023-05-19T07:33:46.603Z,2.72
2023-05-19T07:34:28.421Z,2.78
2023-05-19T07:35:10.561Z,2.75
2023-05-19T07:35:53.305Z,2.88
2023-05-19T07:36:35.243Z,2.90
2023-05-19T07:37:19.853Z,3.10
2023-05-19T07:38:02.363Z,2.72
2023-05-19T07:38:46.578Z,2.67
2023-05-19T07:39:29.741Z,3.20
2023-05-19T07:40:12.039Z,2.80
2023-05-19T07:40:53.973Z,2.58
2023-05-19T07:41:36.458Z,2.80
2023-05-19T07:42:18.888Z,2.85
2023-05-19T07:43:02.797Z,3.20
2023-05-19T07:43:44.728Z,3.03
2023-05-19T07:44:27.238Z,3.75
2023-05-19T07:45:09.503Z,3.03
2023-05-19T07:45:51.463Z,2.45
2023-05-19T07:46:39.792Z,2.60
2023-05-19T07:47:22.172Z,2.70
2023-05-19T07:48:04.366Z,3.00
2023-05-19T07:48:46.234Z,2.50
2023-05-19T07:49:28.084Z,2.60
2023-05-19T07:50:10.064Z,2.90
2023-05-19T07:50:52.960Z,3.08
2023-05-19T07:51:34.887Z,2.70
2023-05-19T07:52:18.280Z,2.60
2023-05-19T07:53:00.259Z,2.45
2023-05-19T07:53:42.186Z,2.50
2023-05-19T07:54:24.016Z,2.92
2023-05-19T07:55:06.274Z,2.58
2023-05-19T07:55:48.332Z,3.00
2023-05-19T07:56:30.240Z,2.65
2023-05-19T07:57:12.180Z,2.60
2023-05-19T07:57:53.978Z,2.70
2023-05-19T07:58:38.361Z,2.60
2023-05-19T07:59:20.575Z,2.80
2023-05-19T08:00:05.325Z,3.67
2023-05-19T08:00:47.244Z,2.67
2023-05-19T08:01:32.988Z,2.80
2023-05-19T08:02:14.829Z,2.80
2023-05-19T08:02:57.747Z,2.42
2023-05-19T08:03:39.829Z,3.30
2023-05-19T08:04:21.920Z,3.45
2023-05-19T08:05:04.685Z,2.70
2023-05-19T08:05:46.745Z,2.00
2023-05-19T08:06:30.129Z,2.50
2023-05-19T08:07:12.196Z,2.78
2023-05-19T08:07:53.983Z,2.70
2023-05-19T08:08:38.260Z,2.28
2023-05-19T08:09:20.178Z,2.75
2023-05-19T08:10:02.305Z,2.70
2023-05-19T08:10:44.197Z,3.10
2023-05-19T08:11:26.305Z,2.70
2023-05-19T08:12:08.159Z,2.15
2023-05-19T08:12:49.980Z,2.30
2023-05-19T08:13:32.127Z,2.30
2023-05-19T08:14:14.083Z,2.50
2023-05-19T08:15:00.392Z,3.10
2023-05-19T08:15:43.195Z,2.72
2023-05-19T08:16:25.162Z,2.63
2023-05-19T08:17:07.138Z,2.90
2023-05-19T08:17:49.201Z,2.60
2023-05-19T08:18:31.116Z,3.00
2023-05-19T08:19:14.944Z,3.00
2023-05-19T08:19:57.140Z,2.45
2023-05-19T08:20:39.160Z,2.67
2023-05-19T08:21:21.729Z,2.35
2023-05-19T08:22:06.094Z,2.22
2023-05-19T08:22:50.159Z,2.90
2023-05-19T08:23:32.153Z,2.58
2023-05-19T08:24:14.095Z,2.83
2023-05-19T08:24:57.179Z,2.58
2023-05-19T08:25:39.149Z,2.88
2023-05-19T08:26:21.631Z,2.30
2023-05-19T08:27:04.869Z,2.20
2023-05-19T08:27:46.752Z,2.53
2023-05-19T08:28:28.588Z,2.88
2023-05-19T08:29:10.723Z,3.08
2023-05-19T08:29:55.147Z,2.47
2023-05-19T08:30:40.239Z,2.90
2023-05-19T08:31:22.669Z,2.10
2023-05-19T08:32:05.332Z,2.40
2023-05-19T08:32:48.740Z,2.70
2023-05-19T08:33:30.750Z,2.40
2023-05-19T08:34:15.156Z,2.95
2023-05-19T08:34:57.325Z,2.25
2023-05-19T08:35:39.208Z,2.40
2023-05-19T08:36:22.202Z,2.75
2023-05-19T08:37:04.232Z,3.20
2023-05-19T08:37:48.570Z,3.53
2023-05-19T08:38:30.409Z,2.90
2023-05-19T08:39:13.997Z,2.50
2023-05-19T08:39:57.896Z,2.80
2023-05-19T08:40:43.125Z,2.70
2023-05-19T08:41:25.117Z,2.80
2023-05-19T08:42:08.203Z,3.10
2023-05-19T08:42:50.229Z,2.80
2023-05-19T08:43:32.155Z,2.40
2023-05-19T08:44:14.987Z,2.60
2023-05-19T08:44:58.087Z,2.58
2023-05-19T08:45:43.623Z,2.50
2023-05-19T08:46:28.468Z,2.30
2023-05-19T08:47:14.494Z,2.50
2023-05-19T08:47:57.236Z,2.15
2023-05-19T08:48:44.202Z,2.53
2023-05-19T08:49:30.750Z,3.00
2023-05-19T08:50:17.429Z,2.80
2023-05-19T08:51:32.305Z,2.60
2023-05-19T08:52:35.274Z,3.42
2023-05-19T08:53:33.772Z,2.83
2023-05-19T08:54:18.189Z,2.75
2023-05-19T08:55:04.802Z,2.70
2023-05-19T08:55:54.809Z,3.17
2023-05-19T08:56:37.642Z,3.00
2023-05-19T08:57:20.167Z,3.10
2023-05-19T08:58:03.771Z,2.85
2023-05-19T08:58:47.697Z,2.60
2023-05-19T08:59:30.803Z,2.88
2023-05-19T09:00:13.555Z,2.90
2023-05-19T09:00:57.831Z,2.80
2023-05-19T09:01:41.422Z,2.38
2023-05-19T09:02:24.371Z,2.80
2023-05-19T09:03:53.459Z,3.35
2023-05-19T09:04:35.930Z,3.15
2023-05-19T09:05:21.005Z,2.65
2023-05-19T09:06:03.390Z,2.38
2023-05-19T09:06:45.509Z,2.50
2023-05-19T09:07:29.234Z,3.00
2023-05-19T09:08:11.629Z,2.85
2023-05-19T09:08:53.499Z,2.58
2023-05-19T09:09:35.366Z,2.67
2023-05-19T09:10:17.525Z,2.20
2023-05-19T09:10:59.470Z,2.67
2023-05-19T09:11:45.422Z,2.75
2023-05-19T09:12:27.707Z,2.60
2023-05-19T09:13:09.785Z,2.80
2023-05-19T09:13:54.081Z,3.00
2023-05-19T09:14:37.589Z,2.90
2023-05-19T09:15:20.606Z,2.50
2023-05-19T09:16:03.457Z,2.65
2023-05-19T09:16:49.853Z,2.95
2023-05-19T09:17:32.654Z,2.75
2023-05-19T09:18:17.812Z,2.90
2023-05-19T09:19:03.236Z,2.33
2023-05-19T09:19:50.412Z,2.35
2023-05-19T09:20:32.433Z,2.80
2023-05-19T09:21:14.693Z,3.10
2023-05-19T09:22:01.204Z,2.90
2023-05-19T09:22:47.519Z,2.60
2023-05-19T09:23:31.633Z,2.53
2023-05-19T09:24:13.574Z,2.70
2023-05-19T09:24:56.636Z,2.60
2023-05-19T09:25:53.283Z,2.28
2023-05-19T09:26:42.777Z,2.70
2023-05-19T09:27:24.827Z,2.65
2023-05-19T09:28:09.123Z,3.00
2023-05-19T09:28:50.947Z,2.95
2023-05-19T09:29:33.012Z,2.30
2023-05-19T09:30:16.525Z,2.90
2023-05-19T09:31:03.302Z,2.90
2023-05-19T09:31:53.863Z,2.70
2023-05-19T09:32:36.058Z,2.50
2023-05-19T09:33:20.088Z,3.30
2023-05-19T09:34:02.050Z,2.85
2023-05-19T09:34:43.893Z,2.40
2023-05-19T09:35:25.876Z,2.50
2023-05-19T09:36:11.572Z,2.83
2023-05-19T09:36:54.118Z,2.90
2023-05-19T09:37:41.518Z,2.90
2023-05-19T09:38:27.651Z,2.60
2023-05-19T09:39:16.489Z,2.50
2023-05-19T09:39:58.739Z,2.45
2023-05-19T09:40:40.602Z,2.90
2023-05-19T09:41:25.535Z,2.90
2023-05-19T09:42:07.590Z,2.63
2023-05-19T09:42:49.486Z,2.70
2023-05-19T09:43:35.579Z,2.20
2023-05-19T09:44:20.501Z,2.50
2023-05-19T09:45:05.954Z,2.70
2023-05-19T09:45:48.542Z,2.30